Time;durP1;ratioP1;P1;durP2;ratioP2;P2;SDS_P1;SDS_P2;PMS_P1;PMS_P2;Temp;Humidity;BMP_temperature;BMP_pressure;BME280_temperature;BME280_humidity;BME280_pressure;Samples;Min_cycle;Max_cycle;Signal;HPM_P1;HPM_P2
2022/04/25 00:02:15;;;;;;;15.57;5.63;;;;;;;-149.78;100.00;50338.44;4888286;29;20046;-73
2022/04/25 00:04:42;;;;;;;17.50;4.78;;;;;;;-149.78;100.00;50311.06;4887790;29;20033;-72
2022/04/25 00:07:07;;;;;;;11.60;4.95;;;;;;;-149.78;100.00;50322.81;4872399;29;20056;-72
2022/04/25 00:09:33;;;;;;;13.45;5.38;;;;;;;-149.78;100.00;50311.06;4888907;29;20036;-71
2022/04/25 00:11:59;;;;;;;14.93;4.85;;;;;;;-149.78;100.00;50318.91;4887023;29;20729;-71
2022/04/25 00:14:25;;;;;;;11.98;5.55;;;;;;;-149.78;100.00;50350.19;4887013;29;20108;-72
2022/04/25 00:16:55;;;;;;;19.70;6.03;;;;;;;-149.78;100.00;50322.81;4887867;29;20036;-72
2022/04/25 00:19:23;;;;;;;12.32;5.00;;;;;;;-149.78;100.00;50330.63;4886500;29;20056;-72
2022/04/25 00:21:49;;;;;;;13.35;4.97;;;;;;;-149.78;100.00;50330.63;4871316;29;20091;-72
2022/04/25 00:24:15;;;;;;;18.00;5.38;;;;;;;-149.78;100.00;50344.31;4888109;29;20071;-71
2022/04/25 00:26:40;;;;;;;28.73;5.32;;;;;;;-149.78;100.00;50311.06;4888092;29;20076;-72
2022/04/25 00:29:06;;;;;;;14.95;5.20;;;;;;;-149.78;100.00;50322.81;4888263;29;20275;-72
2022/04/25 00:31:32;;;;;;;17.35;5.35;;;;;;;-149.78;100.00;50358.00;4888191;29;20048;-72
2022/04/25 00:33:58;;;;;;;17.30;5.65;;;;;;;-149.78;100.00;50328.69;4894187;29;20092;-72
2022/04/25 00:36:24;;;;;;;11.27;5.07;;;;;;;-149.78;100.00;50346.28;4895462;29;20036;-71
2022/04/25 00:38:49;;;;;;;13.32;5.18;;;;;;;-149.78;100.00;50361.91;4891670;29;20417;-72
2022/04/25 00:41:16;;;;;;;14.40;5.15;;;;;;;-149.78;100.00;50354.09;4887505;29;20132;-72
2022/04/25 00:43:41;;;;;;;20.73;5.63;;;;;;;-149.78;100.00;50330.63;4889190;29;20037;-72
2022/04/25 00:46:19;;;;;;;13.73;5.78;;;;;;;-149.78;100.00;50356.06;4887579;29;20041;-72
2022/04/25 00:48:46;;;;;;;12.13;4.97;;;;;;;-149.78;100.00;50318.91;4889085;29;20876;-71
2022/04/25 00:51:12;;;;;;;15.07;5.53;;;;;;;-149.78;100.00;50356.06;4889071;29;20029;-71
2022/04/25 00:53:37;;;;;;;17.23;5.60;;;;;;;-149.78;100.00;50334.53;4856374;29;20047;-71
2022/04/25 00:56:06;;;;;;;12.20;5.05;;;;;;;-149.78;100.00;50361.91;4871972;29;20070;-72
2022/04/25 00:58:32;;;;;;;15.15;5.10;;;;;;;-149.78;100.00;50322.81;4888569;29;20617;-72
2022/04/25 01:00:57;;;;;;;14.00;5.03;;;;;;;-149.78;100.00;50356.06;4887448;29;20040;-72
2022/04/25 01:03:23;;;;;;;12.30;5.35;;;;;;;-149.78;100.00;50334.53;4890979;29;20184;-71
2022/04/25 01:05:49;;;;;;;16.88;5.57;;;;;;;-149.78;100.00;50332.59;4891108;29;20448;-72
2022/04/25 01:08:15;;;;;;;16.42;5.47;;;;;;;-149.78;100.00;50324.75;4891363;29;20040;-72
2022/04/25 01:10:43;;;;;;;24.13;6.32;;;;;;;-149.78;100.00;50365.84;4891197;29;20033;-71
2022/04/25 01:13:11;;;;;;;21.13;5.63;;;;;;;-149.78;100.00;50356.06;4891294;29;20040;-72
2022/04/25 01:15:37;;;;;;;17.40;5.43;;;;;;;-149.78;100.00;50305.22;4875494;29;20036;-72
2022/04/25 01:18:03;;;;;;;16.30;5.60;;;;;;;-149.78;100.00;50387.34;4891208;29;20091;-71
2022/04/25 01:20:29;;;;;;;19.73;6.35;;;;;;;-149.78;100.00;50354.09;4891014;29;20036;-72
2022/04/25 01:28:33;;;;;;;16.75;5.82;;;;;;;-149.78;100.00;50354.09;4892101;29;20044;-72
2022/04/25 01:30:59;;;;;;;21.58;5.75;;;;;;;-149.78;100.00;50342.38;4875138;29;20100;-72
2022/04/25 01:33:25;;;;;;;14.57;6.10;;;;;;;-149.78;100.00;50365.84;4889848;29;21296;-72
2022/04/25 01:35:50;;;;;;;11.88;5.00;;;;;;;-149.78;100.00;50318.91;4889762;29;20036;-72
2022/04/25 01:38:16;;;;;;;19.85;6.47;;;;;;;-149.78;100.00;50369.75;4890854;29;20124;-72
2022/04/25 01:40:42;;;;;;;18.95;5.20;;;;;;;-149.78;100.00;50326.72;4890694;29;20060;-72
2022/04/25 01:43:07;;;;;;;12.50;4.43;;;;;;;-149.78;100.00;50332.59;4890465;29;20492;-72
2022/04/25 01:45:33;;;;;;;21.33;6.50;;;;;;;-149.78;100.00;50377.56;4890978;29;20459;-71
2022/04/25 01:47:59;;;;;;;25.52;4.82;;;;;;;-149.78;100.00;50330.63;4889249;29;20420;-72
2022/04/25 01:50:25;;;;;;;14.65;5.10;;;;;;;-149.78;100.00;50371.69;4889874;29;20400;-72
2022/04/25 01:52:51;;;;;;;19.27;6.35;;;;;;;-149.78;100.00;50334.53;4889220;29;20040;-71
2022/04/25 01:55:17;;;;;;;19.05;5.78;;;;;;;-149.78;100.00;50303.25;4873690;29;20496;-72
2022/04/25 01:57:43;;;;;;;21.77;6.07;;;;;;;-149.78;100.00;50352.16;4891354;29;20036;-72
2022/04/25 02:00:09;;;;;;;14.60;5.70;;;;;;;-149.78;100.00;50387.34;4873381;29;20067;-72
2022/04/25 02:02:36;;;;;;;19.67;6.60;;;;;;;-149.78;100.00;50346.28;4890124;29;20045;-71
2022/04/25 02:05:06;;;;;;;19.20;6.60;;;;;;;-149.78;100.00;50363.88;4872982;29;20041;-71
2022/04/25 02:07:32;;;;;;;15.77;6.32;;;;;;;-149.78;100.00;50324.75;4888419;29;21607;-71
2022/04/25 02:09:58;;;;;;;17.17;5.63;;;;;;;-149.78;100.00;50356.06;4889881;29;20101;-72
2022/04/25 02:12:25;;;;;;;18.63;6.28;;;;;;;-149.78;100.00;50338.44;4890135;29;20472;-73
2022/04/25 02:14:50;;;;;;;17.45;5.45;;;;;;;-149.78;100.00;50354.09;4887770;29;20123;-72
2022/04/25 02:17:16;;;;;;;22.20;6.10;;;;;;;-149.78;100.00;50342.38;4889886;29;20151;-72
2022/04/25 02:19:44;;;;;;;16.20;6.15;;;;;;;-149.78;100.00;50365.84;4890298;29;20127;-72
2022/04/25 02:22:11;;;;;;;21.45;6.47;;;;;;;-149.78;100.00;50385.38;4890317;29;20040;-72
2022/04/25 02:24:40;;;;;;;21.15;6.53;;;;;;;-149.78;100.00;50369.75;4890417;29;20037;-72
2022/04/25 02:27:07;;;;;;;13.55;6.18;;;;;;;-149.78;100.00;50354.09;4888996;29;20436;-72
2022/04/25 02:29:39;;;;;;;18.08;6.00;;;;;;;-149.78;100.00;50369.75;4888637;29;20587;-73
2022/04/25 02:32:05;;;;;;;15.48;6.00;;;;;;;-149.78;100.00;50397.13;4890489;29;20510;-72
2022/04/25 02:34:31;;;;;;;15.80;5.53;;;;;;;-149.78;100.00;50322.81;4889728;29;20691;-72
2022/04/25 02:36:57;;;;;;;18.73;5.43;;;;;;;-149.78;100.00;50377.56;4857717;29;20059;-72
2022/04/25 02:39:24;;;;;;;15.05;6.00;;;;;;;-149.78;100.00;50389.31;4889752;29;20048;-72
2022/04/25 02:41:51;;;;;;;15.80;5.85;;;;;;;-149.78;100.00;50358.00;4888673;29;20139;-72
2022/04/25 02:44:18;;;;;;;19.30;6.30;;;;;;;-149.78;100.00;50334.53;4889533;29;20160;-73
2022/04/25 02:46:44;;;;;;;19.40;5.90;;;;;;;-149.78;100.00;50369.75;4889551;29;20072;-72
2022/04/25 02:49:09;;;;;;;16.85;5.43;;;;;;;-149.78;100.00;50387.34;4889675;29;20037;-72
2022/04/25 02:51:35;;;;;;;14.23;4.82;;;;;;;-149.78;100.00;50361.91;4872946;29;20041;-72
2022/04/25 02:54:00;;;;;;;17.95;5.65;;;;;;;-149.78;100.00;50342.38;4889753;29;20048;-72
2022/04/25 02:56:26;;;;;;;13.30;5.20;;;;;;;-149.78;100.00;50369.75;4889742;29;20040;-72
2022/04/25 02:58:52;;;;;;;14.40;4.95;;;;;;;-149.78;100.00;50387.34;4889281;29;20041;-72
2022/04/25 03:01:18;;;;;;;14.30;5.43;;;;;;;-149.78;100.00;50330.63;4872482;29;20112;-72
2022/04/25 03:03:43;;;;;;;19.10;5.50;;;;;;;-149.78;100.00;50326.72;4872082;29;20044;-72
2022/04/25 03:06:10;;;;;;;15.18;4.70;;;;;;;-149.78;100.00;50361.91;4887639;29;20127;-74
2022/04/25 03:08:37;;;;;;;17.65;5.18;;;;;;;-149.78;100.00;50373.66;4889221;29;20043;-72
2022/04/25 03:11:05;;;;;;;16.23;5.22;;;;;;;-149.78;100.00;50424.50;4891061;29;20580;-72
2022/04/25 03:13:31;;;;;;;15.70;5.68;;;;;;;-149.78;100.00;50377.56;4891093;29;20037;-72
2022/04/25 03:15:57;;;;;;;25.55;6.72;;;;;;;-149.78;100.00;50369.75;4895515;29;20084;-72
2022/04/25 03:18:23;;;;;;;14.10;5.53;;;;;;;-149.78;100.00;50393.22;4877857;29;20048;-72
2022/04/25 03:20:50;;;;;;;14.98;5.78;;;;;;;-149.78;100.00;50381.47;4888834;29;20036;-72
2022/04/25 03:23:17;;;;;;;16.35;6.03;;;;;;;-149.78;100.00;50365.84;4890366;29;20686;-72
2022/04/25 03:25:43;;;;;;;16.83;5.40;;;;;;;-149.78;100.00;50397.13;4892137;29;20040;-72
2022/04/25 03:28:09;;;;;;;20.02;5.63;;;;;;;-149.78;100.00;50358.00;4889086;29;20040;-72
2022/04/25 03:30:34;;;;;;;14.10;5.10;;;;;;;-149.78;100.00;50350.19;4885960;29;20037;-72
2022/04/25 03:33:01;;;;;;;21.10;5.88;;;;;;;-149.78;100.00;50348.22;4872125;29;20100;-72
2022/04/25 03:35:27;;;;;;;13.05;5.47;;;;;;;-149.78;100.00;50404.94;4889084;29;20100;-72
2022/04/25 03:37:53;;;;;;;16.67;5.70;;;;;;;-149.78;100.00;50401.03;4888031;29;20043;-72
2022/04/25 03:40:19;;;;;;;19.27;5.93;;;;;;;-149.78;100.00;50401.03;4887623;29;20096;-72
2022/04/25 03:42:45;;;;;;;16.27;5.53;;;;;;;-149.78;100.00;50408.84;4887437;29;20044;-72
2022/04/25 03:45:16;;;;;;;19.60;5.28;;;;;;;-149.78;100.00;50369.75;4887353;29;20100;-72
2022/04/25 03:47:43;;;;;;;17.70;5.53;;;;;;;-149.78;100.00;50389.31;4886909;29;20108;-72
2022/04/25 03:50:10;;;;;;;16.08;5.63;;;;;;;-149.78;100.00;50385.38;4888720;29;20037;-72
2022/04/25 03:52:38;;;;;;;21.08;5.60;;;;;;;-149.78;100.00;50381.47;4886881;29;20083;-72
2022/04/25 03:57:52;;;;;;;15.18;5.32;;;;;;;-149.78;100.00;50404.94;4887935;29;20039;-72
2022/04/25 04:00:17;;;;;;;23.23;5.22;;;;;;;-149.78;100.00;50393.22;4871315;29;20409;-72
2022/04/25 04:02:43;;;;;;;11.52;4.75;;;;;;;-149.78;100.00;50365.84;4887467;29;20515;-72
2022/04/25 04:05:10;;;;;;;13.90;5.10;;;;;;;-149.78;100.00;50408.84;4871912;29;21939;-72
2022/04/25 04:07:37;;;;;;;14.90;5.03;;;;;;;-149.78;100.00;50393.22;4888314;29;20413;-72
2022/04/25 04:10:03;;;;;;;14.02;5.18;;;;;;;-149.78;100.00;50381.47;4888664;29;20047;-72
2022/04/25 04:12:35;;;;;;;19.95;5.20;;;;;;;-149.78;100.00;50391.25;4888562;29;20083;-72
2022/04/25 04:15:03;;;;;;;15.40;5.38;;;;;;;-149.78;100.00;50377.56;4888583;29;20479;-72
2022/04/25 04:17:37;;;;;;;14.82;4.75;;;;;;;-149.78;100.00;50381.47;4872501;29;20041;-73
2022/04/25 04:20:04;;;;;;;14.52;4.45;;;;;;;-149.78;100.00;50342.38;4886756;29;20041;-72
2022/04/25 04:22:36;;;;;;;18.77;5.38;;;;;;;-149.78;100.00;50350.19;4887118;29;20532;-73
2022/04/25 04:25:05;;;;;;;16.42;5.40;;;;;;;-149.78;100.00;50373.66;4887173;29;20036;-72
2022/04/25 04:27:32;;;;;;;12.98;4.80;;;;;;;-149.78;100.00;50381.47;4886599;29;20200;-72
2022/04/25 04:30:06;;;;;;;11.88;4.68;;;;;;;-149.78;100.00;50391.25;4888056;29;20071;-72
2022/04/25 04:32:32;;;;;;;18.55;5.05;;;;;;;-149.78;100.00;50334.53;4887313;29;20096;-73
2022/04/25 04:35:00;;;;;;;13.77;5.47;;;;;;;-149.78;100.00;50358.00;4903257;29;20511;-73
2022/04/25 04:37:33;;;;;;;13.43;5.60;;;;;;;-149.78;100.00;50371.69;4889759;29;20033;-73
2022/04/25 04:42:44;;;;;;;23.45;4.72;;;;;;;-149.78;100.00;50395.16;4893126;29;20032;-73
2022/04/25 04:45:18;;;;;;;13.80;5.05;;;;;;;-149.78;100.00;50365.84;4877331;29;20036;-73
2022/04/25 04:47:44;;;;;;;14.35;5.20;;;;;;;-149.78;100.00;50381.47;4892659;29;20049;-73
2022/04/25 04:50:15;;;;;;;16.20;5.18;;;;;;;-149.78;100.00;50369.75;4875858;29;20037;-73
2022/04/25 04:52:46;;;;;;;21.55;5.93;;;;;;;-149.78;100.00;50383.44;4891511;29;20040;-73
2022/04/25 04:55:12;;;;;;;16.50;5.88;;;;;;;-149.78;100.00;50404.94;4891239;29;20426;-72
2022/04/25 04:57:38;;;;;;;14.27;5.07;;;;;;;-149.78;100.00;50358.00;4892713;29;20445;-73
2022/04/25 05:00:06;;;;;;;12.45;5.38;;;;;;;-149.78;100.00;50358.00;4891337;29;20511;-73
2022/04/25 05:02:32;;;;;;;12.75;5.07;;;;;;;-149.78;100.00;50373.66;4890538;29;20095;-73
2022/04/25 05:04:57;;;;;;;19.80;5.32;;;;;;;-149.78;100.00;50379.53;4890331;29;20036;-73
2022/04/25 05:07:23;;;;;;;12.63;5.18;;;;;;;-149.78;100.00;50373.66;4892530;29;20135;-72
2022/04/25 05:09:48;;;;;;;20.35;5.78;;;;;;;-149.78;100.00;50369.75;4892492;29;20042;-73
2022/04/25 05:12:14;;;;;;;16.70;5.18;;;;;;;-149.78;100.00;50367.78;4892465;29;20059;-73
2022/04/25 05:14:40;;;;;;;10.02;4.95;;;;;;;-149.78;100.00;50397.13;4890695;29;20059;-72
2022/04/25 05:17:06;;;;;;;17.27;5.35;;;;;;;-149.78;100.00;50365.84;4891228;29;20048;-72
2022/04/25 05:19:32;;;;;;;11.15;5.68;;;;;;;-149.78;100.00;50356.06;4875399;29;20040;-73
2022/04/25 05:21:58;;;;;;;16.98;5.80;;;;;;;-149.78;100.00;50401.03;4891213;29;20043;-73
2022/04/25 05:24:23;;;;;;;12.70;5.00;;;;;;;-149.78;100.00;50354.09;4892562;29;20040;-72
2022/04/25 05:26:49;;;;;;;15.10;5.43;;;;;;;-149.78;100.00;50369.75;4874536;29;20041;-73
2022/04/25 05:29:14;;;;;;;15.40;5.80;;;;;;;-149.78;100.00;50365.84;4876166;29;20056;-73
2022/04/25 05:31:40;;;;;;;13.75;5.43;;;;;;;-149.78;100.00;50371.69;4876738;29;20590;-73
2022/04/25 05:34:06;;;;;;;14.80;5.53;;;;;;;-149.78;100.00;50373.66;4891714;29;20036;-72
2022/04/25 05:36:32;;;;;;;16.30;4.57;;;;;;;-149.78;100.00;50377.56;4892069;29;20092;-72
2022/04/25 05:38:57;;;;;;;14.45;5.60;;;;;;;-149.78;100.00;50361.91;4890682;29;21291;-73
2022/04/25 05:41:24;;;;;;;18.60;5.68;;;;;;;-149.78;100.00;50369.75;4897268;29;20389;-73
2022/04/25 05:43:50;;;;;;;16.17;5.13;;;;;;;-149.78;100.00;50361.91;4891656;29;20039;-73
2022/04/25 05:46:15;;;;;;;26.88;6.78;;;;;;;-149.78;100.00;50381.47;4889902;29;20044;-73
2022/04/25 05:54:12;;;;;;;16.73;5.90;;;;;;;-149.78;100.00;50379.53;4887937;29;20044;-72
2022/04/25 05:56:39;;;;;;;15.38;5.00;;;;;;;-149.78;100.00;50375.63;4888479;29;20051;-74
2022/04/25 05:59:05;;;;;;;17.23;5.40;;;;;;;-149.78;100.00;50369.75;4889658;29;20044;-72
2022/04/25 06:01:31;;;;;;;12.70;5.60;;;;;;;-149.78;100.00;50381.47;4890892;29;20489;-73
2022/04/25 06:03:57;;;;;;;18.30;6.13;;;;;;;-149.78;100.00;50363.88;4891686;29;20028;-73
2022/04/25 06:06:26;;;;;;;16.17;5.72;;;;;;;-149.78;100.00;50342.38;4893360;29;20069;-73
2022/04/25 06:08:52;;;;;;;20.13;5.55;;;;;;;-149.78;100.00;50369.75;4892707;29;20492;-72
2022/04/25 06:11:18;;;;;;;18.98;5.53;;;;;;;-149.78;100.00;50361.91;4894786;29;20037;-73
2022/04/25 06:13:44;;;;;;;13.75;5.47;;;;;;;-149.78;100.00;50389.31;4888276;29;20100;-72
2022/04/25 06:16:11;;;;;;;21.30;6.28;;;;;;;-149.78;100.00;50314.97;4895214;29;20342;-73
2022/04/25 06:18:37;;;;;;;20.65;5.35;;;;;;;-149.78;100.00;50350.19;4879986;29;20064;-73
2022/04/25 06:21:03;;;;;;;12.13;5.50;;;;;;;-149.78;100.00;50322.81;4882382;29;20088;-73
2022/04/25 06:23:30;;;;;;;12.80;5.55;;;;;;;-149.78;100.00;50330.63;4901120;29;20095;-72
2022/04/25 06:25:56;;;;;;;8.80;4.70;;;;;;;-149.78;100.00;50350.19;4917374;29;20032;-72
2022/04/25 06:28:24;;;;;;;12.20;5.30;;;;;;;-149.78;100.00;50342.38;4899532;29;20036;-73
2022/04/25 06:30:51;;;;;;;15.73;5.82;;;;;;;-149.78;100.00;50348.22;4904540;29;20055;-72
2022/04/25 06:33:17;;;;;;;12.55;4.93;;;;;;;-149.78;100.00;50354.09;4888199;29;20040;-72
2022/04/25 06:35:46;;;;;;;10.70;5.10;;;;;;;-149.78;100.00;50358.00;4889093;29;20449;-71
2022/04/25 06:38:12;;;;;;;18.17;4.88;;;;;;;-149.78;100.00;50350.19;4892757;29;20036;-71
2022/04/25 06:40:38;;;;;;;8.95;4.57;;;;;;;-149.78;100.00;50334.53;4886083;29;20426;-72
2022/04/25 06:43:04;;;;;;;19.00;6.28;;;;;;;-149.78;100.00;50367.78;4879622;29;20036;-71
2022/04/25 06:45:30;;;;;;;15.00;4.93;;;;;;;-149.78;100.00;50322.81;4881195;29;20041;-72
2022/04/25 06:47:56;;;;;;;12.65;4.95;;;;;;;-149.78;100.00;50342.38;4898376;29;20053;-72
2022/04/25 06:50:23;;;;;;;12.57;4.60;;;;;;;-149.78;100.00;50342.38;4889779;29;20045;-72
2022/04/25 06:52:48;;;;;;;16.27;3.83;;;;;;;-149.78;100.00;50324.75;4882249;29;20183;-71
2022/04/25 06:55:14;;;;;;;10.52;4.43;;;;;;;-149.78;100.00;50330.63;4885885;29;20044;-71
2022/04/25 06:57:40;;;;;;;14.35;4.60;;;;;;;-149.78;100.00;50344.31;4885019;29;20036;-71
2022/04/25 07:00:09;;;;;;;10.45;5.00;;;;;;;-149.78;100.00;50334.53;4876846;29;20040;-71
2022/04/25 07:02:35;;;;;;;9.60;4.50;;;;;;;-149.78;100.00;50330.63;4881336;29;20033;-71
2022/04/25 07:05:04;;;;;;;13.27;5.18;;;;;;;-149.78;100.00;50307.16;4888423;29;20037;-71
2022/04/25 07:07:31;;;;;;;9.52;4.75;;;;;;;-149.78;100.00;50342.38;4884811;29;20037;-72
2022/04/25 07:09:56;;;;;;;10.02;4.65;;;;;;;-149.78;100.00;50336.50;4887690;29;20028;-71
2022/04/25 07:12:23;;;;;;;12.05;4.80;;;;;;;-149.78;100.00;50359.97;4878516;29;20045;-71
2022/04/25 07:14:49;;;;;;;13.57;4.88;;;;;;;-149.78;100.00;50322.81;4882570;29;20072;-71
2022/04/25 07:17:15;;;;;;;15.55;4.97;;;;;;;-149.78;100.00;50356.06;4889353;29;20127;-72
2022/04/25 07:19:41;;;;;;;15.80;4.82;;;;;;;-149.78;100.00;50326.72;4883548;29;20177;-72
2022/04/25 07:30:22;;;;;;;12.18;4.78;;;;;;;-149.78;100.00;50330.63;4897873;29;20039;-72
2022/04/25 07:32:47;;;;;;;13.65;4.80;;;;;;;-149.78;100.00;50338.44;4880184;29;20033;-72
2022/04/25 07:35:13;;;;;;;8.45;4.38;;;;;;;-149.78;100.00;50303.25;4896064;29;20123;-72
2022/04/25 07:37:39;;;;;;;9.95;4.72;;;;;;;-149.78;100.00;50334.53;4896005;29;20043;-72
2022/04/25 07:40:08;;;;;;;20.77;5.32;;;;;;;-149.78;100.00;50338.44;4897549;29;20043;-72
2022/04/25 07:42:39;;;;;;;10.50;4.30;;;;;;;-149.78;100.00;50326.72;4897482;29;20055;-72
2022/04/25 07:45:06;;;;;;;18.25;4.82;;;;;;;-149.78;100.00;50275.88;4897602;29;20096;-72
2022/04/25 07:47:35;;;;;;;10.65;4.45;;;;;;;-149.78;100.00;50311.06;4897378;29;20530;-72
2022/04/25 07:50:01;;;;;;;13.43;4.53;;;;;;;-149.78;100.00;50342.38;4897493;29;20041;-72
2022/04/25 07:52:27;;;;;;;15.85;4.07;;;;;;;-149.78;100.00;50342.38;4880738;29;20495;-72
2022/04/25 07:54:54;;;;;;;13.35;5.30;;;;;;;-149.78;100.00;50303.25;4896094;29;20044;-72
2022/04/25 07:57:19;;;;;;;17.27;4.82;;;;;;;-149.78;100.00;50311.06;4897387;29;20216;-72
2022/04/25 07:59:45;;;;;;;14.52;4.43;;;;;;;-149.78;100.00;50354.09;4897194;29;20128;-72
2022/04/25 08:02:11;;;;;;;11.82;4.97;;;;;;;-149.78;100.00;50260.22;4897343;29;20052;-72
2022/04/25 08:04:37;;;;;;;15.57;4.47;;;;;;;-149.78;100.00;50297.38;4897173;29;20040;-72
2022/04/25 08:07:02;;;;;;;13.45;4.45;;;;;;;-149.78;100.00;50291.50;4896431;29;20033;-72
2022/04/25 08:09:28;;;;;;;12.27;4.38;;;;;;;-149.78;100.00;50314.97;4882447;29;20036;-72
2022/04/25 08:20:17;;;;;;;13.40;5.50;;;;;;;-149.78;100.00;50326.72;4874656;29;20135;-72
2022/04/25 08:22:43;;;;;;;22.45;6.13;;;;;;;-149.78;100.00;50301.28;4888009;29;20086;-73
2022/04/25 08:25:11;;;;;;;21.38;5.32;;;;;;;-149.78;100.00;50322.81;4884654;29;20033;-73
2022/04/25 08:27:37;;;;;;;18.17;5.85;;;;;;;-149.78;100.00;50307.16;4871830;29;20049;-71
2022/04/25 08:30:04;;;;;;;17.98;6.15;;;;;;;-149.78;100.00;50338.44;4885786;29;20044;-72
2022/04/25 08:32:33;;;;;;;15.70;6.00;;;;;;;-149.78;100.00;50299.34;4893571;29;20127;-71
2022/04/25 08:35:01;;;;;;;14.73;5.68;;;;;;;-149.78;100.00;50322.81;4885174;29;20089;-72
2022/04/25 08:37:28;;;;;;;20.38;6.60;;;;;;;-149.78;100.00;50324.75;4878321;29;20039;-71
2022/04/25 08:39:55;;;;;;;12.70;5.35;;;;;;;-149.78;100.00;50311.06;4876746;29;20112;-71
2022/04/25 08:42:22;;;;;;;17.58;6.93;;;;;;;-149.78;100.00;50350.19;4883081;29;20053;-71
2022/04/25 08:44:55;;;;;;;19.17;7.57;;;;;;;-149.78;100.00;50299.34;4890009;29;20388;-71
2022/04/25 08:47:26;;;;;;;21.38;7.70;;;;;;;-149.78;100.00;50324.75;4888753;29;20056;-71
2022/04/25 08:49:52;;;;;;;17.98;6.90;;;;;;;-149.78;100.00;50299.34;4890529;29;20064;-71
2022/04/25 08:52:18;;;;;;;19.65;6.97;;;;;;;-149.78;100.00;50295.44;4888199;29;20037;-71
2022/04/25 08:54:46;;;;;;;17.50;7.30;;;;;;;-149.78;100.00;50328.69;4885548;29;20033;-71
2022/04/25 08:57:15;;;;;;;14.80;6.57;;;;;;;-149.78;100.00;50314.97;4889463;29;20044;-71
2022/04/25 08:59:43;;;;;;;16.20;7.68;;;;;;;-149.78;100.00;50318.91;4894479;29;20040;-71
2022/04/25 09:02:12;;;;;;;21.08;8.05;;;;;;;-149.78;100.00;50326.72;4895089;29;20029;-71
2022/04/25 09:04:37;;;;;;;24.92;9.05;;;;;;;-149.78;100.00;50314.97;4885288;29;20029;-71
2022/04/25 09:07:03;;;;;;;19.55;7.65;;;;;;;-149.78;100.00;50330.63;4891942;29;20426;-71
2022/04/25 09:09:29;;;;;;;16.25;7.22;;;;;;;-149.78;100.00;50281.75;4876580;29;20041;-71
2022/04/25 09:12:09;;;;;;;20.90;7.78;;;;;;;-149.78;100.00;50318.91;4887926;29;20140;-71
2022/04/25 09:14:40;;;;;;;15.57;7.90;;;;;;;-149.78;100.00;50338.44;4883971;29;20040;-71
2022/04/25 09:17:07;;;;;;;17.55;8.00;;;;;;;-149.78;100.00;50334.53;4882596;29;20033;-71
2022/04/25 09:19:33;;;;;;;17.95;8.15;;;;;;;-149.78;100.00;50340.41;4891995;29;20100;-71
2022/04/25 09:21:59;;;;;;;20.60;8.13;;;;;;;-149.78;100.00;50303.25;4895767;29;20431;-71
2022/04/25 09:24:34;;;;;;;14.75;7.43;;;;;;;-149.78;100.00;50346.28;4896326;29;20532;-71
2022/04/25 09:27:18;;;;;;;13.30;6.78;;;;;;;-149.78;100.00;50350.19;4899896;29;20095;-71
2022/04/25 09:29:49;;;;;;;15.13;7.32;;;;;;;-149.78;100.00;50342.38;4900091;29;20523;-71
2022/04/25 09:32:18;;;;;;;17.33;7.70;;;;;;;-149.78;100.00;50287.59;4898769;29;20119;-70
2022/04/25 09:35:05;;;;;;;17.90;8.02;;;;;;;-149.78;100.00;50342.38;4899699;29;20049;-70
2022/04/25 09:37:45;;;;;;;18.10;8.82;;;;;;;-149.78;100.00;50322.81;4899849;29;20378;-72
2022/04/25 09:40:12;;;;;;;22.75;8.07;;;;;;;-149.78;100.00;50299.34;4899612;29;20037;-72
2022/04/25 09:42:38;;;;;;;16.92;7.70;;;;;;;-149.78;100.00;50338.44;4899766;29;20055;-70
2022/04/25 09:45:05;;;;;;;17.23;7.88;;;;;;;-149.78;100.00;50283.69;4899627;29;20484;-70
2022/04/25 09:47:36;;;;;;;22.23;7.60;;;;;;;-149.78;100.00;50271.97;4896991;29;20465;-71
2022/04/25 09:50:07;;;;;;;22.50;8.13;;;;;;;-149.78;100.00;50342.38;4891716;29;20052;-70
2022/04/25 09:52:36;;;;;;;19.77;8.60;;;;;;;-149.78;100.00;50279.78;4893373;29;20032;-71
2022/04/25 09:55:12;;;;;;;20.02;8.55;;;;;;;-149.78;100.00;50314.97;4890512;29;20441;-70
2022/04/25 09:57:38;;;;;;;18.65;8.18;;;;;;;-149.78;100.00;50338.44;4887705;29;20045;-70
2022/04/25 10:00:05;;;;;;;19.13;9.45;;;;;;;-149.78;100.00;50293.47;4874080;29;20120;-70
2022/04/25 10:02:30;;;;;;;16.55;8.30;;;;;;;-149.78;100.00;50313.03;4889390;29;20067;-71
2022/04/25 10:04:56;;;;;;;18.40;7.43;;;;;;;-149.78;100.00;50326.72;4886943;29;20481;-71
2022/04/25 10:07:23;;;;;;;19.13;7.50;;;;;;;-149.78;100.00;50271.97;4893420;29;20044;-71
2022/04/25 10:09:49;;;;;;;20.77;7.40;;;;;;;-149.78;100.00;50350.19;4886195;29;20068;-71
2022/04/25 10:12:17;;;;;;;18.77;7.13;;;;;;;-149.78;100.00;50328.69;4880494;29;20492;-70
2022/04/25 10:14:43;;;;;;;18.40;7.28;;;;;;;-149.78;100.00;50342.38;4894423;29;20454;-71
2022/04/25 10:17:10;;;;;;;21.83;8.38;;;;;;;-149.78;100.00;50307.16;4897766;29;20750;-70
2022/04/25 10:19:38;;;;;;;16.30;7.68;;;;;;;-149.78;100.00;50350.19;4891967;29;20442;-70
2022/04/25 10:22:04;;;;;;;20.52;8.00;;;;;;;-149.78;100.00;50311.06;4881879;29;20474;-70
2022/04/25 10:24:32;;;;;;;21.77;7.43;;;;;;;-149.78;100.00;50322.81;4897048;29;20502;-71
2022/04/25 10:27:06;;;;;;;17.73;7.63;;;;;;;-149.78;100.00;50348.22;4894697;29;20033;-70
2022/04/25 10:29:36;;;;;;;20.17;7.90;;;;;;;-149.78;100.00;50322.81;4895714;29;20115;-71
2022/04/25 10:32:04;;;;;;;22.63;8.48;;;;;;;-149.78;100.00;50342.38;4893850;29;20072;-71
2022/04/25 10:35:04;;;;;;;18.65;8.10;;;;;;;-149.78;100.00;50279.78;4892445;29;20039;-70
2022/04/25 10:37:33;;;;;;;21.23;8.93;;;;;;;-149.78;100.00;50326.72;4895140;29;20028;-70
2022/04/25 10:40:04;;;;;;;22.17;8.75;;;;;;;-149.78;100.00;50283.69;4895689;29;20083;-71
2022/04/25 10:45:14;;;;;;;20.75;9.52;;;;;;;-149.78;100.00;50299.34;4897756;29;20041;-71
2022/04/25 10:48:00;;;;;;;17.65;8.55;;;;;;;-149.78;100.00;50299.34;4898412;29;20493;-71
2022/04/25 10:50:26;;;;;;;24.55;9.07;;;;;;;-149.78;100.00;50283.69;4897092;29;20129;-70
2022/04/25 10:52:56;;;;;;;23.77;9.13;;;;;;;-149.78;100.00;50326.72;4892425;29;20063;-70
2022/04/25 10:55:30;;;;;;;19.45;9.65;;;;;;;-149.78;100.00;50311.06;4879415;29;20036;-71
2022/04/25 10:58:01;;;;;;;28.55;9.68;;;;;;;-149.78;100.00;50320.84;4879617;29;20041;-71
2022/04/25 11:00:45;;;;;;;19.00;10.98;;;;;;;-149.78;100.00;50311.06;4882124;29;20043;-70
2022/04/25 11:03:15;;;;;;;24.73;10.48;;;;;;;-149.78;100.00;50311.06;4889542;29;20366;-70
2022/04/25 11:05:58;;;;;;;24.05;11.07;;;;;;;-149.78;100.00;50275.88;4890790;29;20110;-71
2022/04/25 11:08:26;;;;;;;21.85;10.60;;;;;;;-149.78;100.00;50297.38;4902199;29;20355;-71
2022/04/25 11:11:05;;;;;;;19.60;10.93;;;;;;;-149.78;100.00;50264.13;4880605;29;20037;-71
2022/04/25 11:13:36;;;;;;;24.80;10.75;;;;;;;-149.78;100.00;50314.97;4891935;29;20033;-70
2022/04/25 11:16:15;;;;;;;21.30;10.73;;;;;;;-149.78;100.00;50295.44;4891865;29;20037;-71
2022/04/25 11:18:42;;;;;;;31.48;11.27;;;;;;;-149.78;100.00;50314.97;4891852;29;20037;-72
2022/04/25 11:21:14;;;;;;;23.77;9.60;;;;;;;-149.78;100.00;50295.44;4881021;29;20049;-73
2022/04/25 11:23:43;;;;;;;20.85;9.75;;;;;;;-149.78;100.00;50271.97;4896539;29;20389;-73
2022/04/25 11:26:11;;;;;;;25.20;11.07;;;;;;;-149.78;100.00;50314.97;4897776;29;20124;-74
2022/04/25 11:29:01;;;;;;;21.52;11.20;;;;;;;-149.78;100.00;50311.06;4896296;29;20040;-73
2022/04/25 11:31:28;;;;;;;21.40;10.43;;;;;;;-149.78;100.00;50295.44;4897732;29;20454;-72
2022/04/25 11:34:03;;;;;;;23.73;10.77;;;;;;;-149.78;100.00;50295.44;4893747;29;20817;-73
2022/04/25 11:36:36;;;;;;;32.22;10.23;;;;;;;-149.78;100.00;50291.50;4883182;29;20032;-71
2022/04/25 11:41:47;;;;;;;20.00;10.20;;;;;;;-149.78;100.00;50279.78;4881208;29;20037;-71
2022/04/25 11:44:13;;;;;;;22.88;10.50;;;;;;;-149.78;100.00;50295.44;4886518;29;20052;-72